Hancock, Minnesota
Current Conditions -  °F | °C
As of 6:05 PM on Wednesday 22 Oct 2014 (Local Time) from KMOX Reporting Station
Moderate Rain Moderate Rain  
Wind Chill: 59°   Ceiling: 4700
Heat Index: 59°   Visibility: 7mi
Dew Point: 54°   Wind: 8mph
Humidity: 82%   Direction: 160°SSE
Pressure: 29.9"   Gusts: NA
Location:  45.5°N, 95.8°W
Report Text: KMOX 222305Z AUTO 16007KT 7SM RA OVC047 15/12 A2990 RMK AO2 P0001
Loading
Personal Weather Stations






























Interactive Weather Map
Tropical Storm Tracking
New forecast layout! Learn more

10-Day Weather Forecast

Advertisements
Track Severe Weather on mobile